Time;durP1;ratioP1;P1;durP2;ratioP2;P2;SDS_P1;SDS_P2;PMS_P1;PMS_P2;Temp;Humidity;BMP_temperature;BMP_pressure;BME280_temperature;BME280_humidity;BME280_pressure;Samples;Min_cycle;Max_cycle;Signal;HPM_P1;HPM_P2
2023/11/29 00:01:52;;;;;;;13.07;7.70;;;;;2.30;100063.00;;;;10063700;29;20286;-88
2023/11/29 00:06:54;;;;;;;11.83;7.93;;;;;2.30;100057.00;;;;10089307;29;20238;-88
2023/11/29 00:11:55;;;;;;;13.67;8.23;;;;;2.30;100047.00;;;;10095565;29;20234;-88
2023/11/29 00:16:56;;;;;;;14.20;9.20;;;;;2.10;100042.00;;;;10089046;29;20227;-89
2023/11/29 00:22:06;;;;;;;14.57;8.77;;;;;2.00;100044.00;;;;10099058;29;20315;-88
2023/11/29 00:27:07;;;;;;;12.33;7.77;;;;;1.80;100027.00;;;;10101771;29;20238;-88
2023/11/29 00:32:08;;;;;;;14.17;8.23;;;;;1.80;100023.00;;;;10070588;29;20247;-90
2023/11/29 00:37:10;;;;;;;14.30;8.13;;;;;1.80;100011.00;;;;10070990;29;20706;-86
2023/11/29 00:42:11;;;;;;;14.73;8.87;;;;;1.80;100007.00;;;;10090444;29;20231;-89
2023/11/29 00:47:13;;;;;;;16.90;8.40;;;;;1.70;100008.00;;;;10107411;29;20227;-89
2023/11/29 00:52:14;;;;;;;12.63;7.63;;;;;1.70;99996.00;;;;10096873;29;20241;-87
2023/11/29 00:57:16;;;;;;;13.73;7.50;;;;;1.70;99983.00;;;;10071300;29;20319;-89
2023/11/29 01:02:17;;;;;;;16.30;8.43;;;;;1.60;99983.00;;;;10126447;29;20218;-86
2023/11/29 01:07:18;;;;;;;13.20;7.70;;;;;1.70;99975.00;;;;10092499;29;20254;-89
2023/11/29 01:12:19;;;;;;;13.43;7.03;;;;;1.80;99974.00;;;;10095216;29;20239;-88
2023/11/29 01:17:21;;;;;;;12.40;6.83;;;;;2.00;99969.00;;;;10076682;29;20232;-88
2023/11/29 01:22:22;;;;;;;12.03;6.50;;;;;2.00;99968.00;;;;10101878;29;20226;-89
2023/11/29 01:27:23;;;;;;;11.57;6.97;;;;;1.90;99977.00;;;;10077392;29;20238;-89
2023/11/29 01:32:25;;;;;;;12.10;7.23;;;;;1.80;99952.00;;;;10087928;29;20238;-88
2023/11/29 01:37:26;;;;;;;10.13;7.37;;;;;1.80;99958.00;;;;10095896;29;20726;-87
2023/11/29 01:42:27;;;;;;;9.20;6.67;;;;;1.80;99960.00;;;;10085397;29;20235;-89
2023/11/29 01:47:33;;;;;;;12.80;8.00;;;;;2.00;99954.00;;;;10093397;29;20317;-90
2023/11/29 01:52:36;;;;;;;10.30;6.77;;;;;2.00;99953.00;;;;10095753;29;20298;-89
2023/11/29 01:57:37;;;;;;;10.37;6.77;;;;;2.10;99963.00;;;;10095422;29;20243;-85
2023/11/29 02:02:40;;;;;;;16.37;7.67;;;;;2.20;99963.00;;;;10084539;29;20343;-77
2023/11/29 02:07:41;;;;;;;12.67;7.10;;;;;2.30;99956.00;;;;10071360;29;20692;-78
2023/11/29 02:12:42;;;;;;;16.70;7.83;;;;;2.30;99950.00;;;;10095246;29;20257;-78
2023/11/29 02:17:44;;;;;;;12.27;7.57;;;;;2.40;99947.00;;;;10091010;29;20626;-78
2023/11/29 02:22:52;;;;;;;11.57;7.63;;;;;2.40;99934.00;;;;10084515;29;20230;-78
2023/11/29 02:27:53;;;;;;;11.13;8.03;;;;;2.40;99916.00;;;;10094617;29;20243;-77
2023/11/29 02:32:55;;;;;;;14.43;9.33;;;;;2.40;99912.00;;;;10083226;29;20995;-77
2023/11/29 02:37:56;;;;;;;15.07;8.73;;;;;2.30;99914.00;;;;10083158;29;20227;-77
2023/11/29 02:42:57;;;;;;;12.67;7.67;;;;;2.10;99905.00;;;;10088394;29;20787;-77
2023/11/29 02:47:59;;;;;;;15.73;9.03;;;;;2.00;99896.00;;;;10089086;29;20223;-77
2023/11/29 02:53:01;;;;;;;12.73;8.07;;;;;2.00;99890.00;;;;10082973;29;20266;-78
2023/11/29 02:58:02;;;;;;;17.03;9.20;;;;;2.10;99887.00;;;;10104158;29;20317;-78
2023/11/29 03:03:04;;;;;;;14.07;8.53;;;;;2.30;99876.00;;;;10078383;29;20359;-77
2023/11/29 03:08:07;;;;;;;14.97;8.17;;;;;2.40;99885.00;;;;10057085;29;20235;-77
2023/11/29 03:13:08;;;;;;;11.13;6.63;;;;;2.50;99860.00;;;;10091876;29;20252;-78
2023/11/29 03:18:09;;;;;;;10.70;7.00;;;;;2.60;99875.00;;;;10102873;29;20282;-88
2023/11/29 03:23:11;;;;;;;14.20;7.73;;;;;2.50;99855.00;;;;10095481;29;20319;-87
2023/11/29 03:28:12;;;;;;;15.10;7.90;;;;;2.40;99832.00;;;;10117570;29;20350;-86
2023/11/29 03:33:13;;;;;;;14.40;8.37;;;;;2.10;99828.00;;;;10125480;29;20243;-88
2023/11/29 03:38:15;;;;;;;13.23;8.27;;;;;2.00;99836.00;;;;10106120;29;20240;-89
2023/11/29 03:43:16;;;;;;;13.40;8.93;;;;;2.00;99825.00;;;;10096148;29;20243;-88
2023/11/29 03:48:18;;;;;;;12.80;8.40;;;;;2.00;99809.00;;;;10097224;29;20231;-89
2023/11/29 03:53:19;;;;;;;10.00;7.30;;;;;2.10;99813.00;;;;10097842;29;20247;-90
2023/11/29 03:58:20;;;;;;;13.97;8.77;;;;;2.20;99835.00;;;;10112883;29;20266;-87
2023/11/29 04:03:22;;;;;;;16.43;9.47;;;;;2.30;99836.00;;;;10131649;29;20220;-86
2023/11/29 04:08:23;;;;;;;17.97;10.17;;;;;2.30;99838.00;;;;10139811;29;20237;-89
2023/11/29 04:13:24;;;;;;;18.57;10.13;;;;;2.40;99835.00;;;;10100060;29;20255;-91
2023/11/29 04:18:25;;;;;;;18.60;8.67;;;;;2.40;99852.00;;;;10091701;29;20239;-84
2023/11/29 04:23:27;;;;;;;17.77;9.17;;;;;2.20;99856.00;;;;10116353;29;20750;-87
2023/11/29 04:28:28;;;;;;;17.13;9.30;;;;;2.00;99831.00;;;;10073721;29;20229;-78
2023/11/29 04:33:29;;;;;;;14.67;8.37;;;;;1.90;99826.00;;;;10090170;29;20258;-78
2023/11/29 04:38:30;;;;;;;14.60;8.90;;;;;1.90;99824.00;;;;10097402;29;20290;-77
2023/11/29 04:43:31;;;;;;;16.27;8.20;;;;;1.80;99804.00;;;;10101337;29;20270;-76
2023/11/29 04:48:34;;;;;;;12.57;8.40;;;;;1.80;99808.00;;;;10112273;29;20245;-75
2023/11/29 04:53:36;;;;;;;13.23;7.80;;;;;1.90;99789.00;;;;10103383;29;20255;-78
2023/11/29 04:58:39;;;;;;;10.63;7.20;;;;;1.80;99792.00;;;;10074661;29;20224;-76
2023/11/29 05:03:41;;;;;;;10.10;8.03;;;;;1.80;99785.00;;;;10074669;29;20291;-77
2023/11/29 05:08:42;;;;;;;9.33;6.97;;;;;1.70;99785.00;;;;10078581;29;20835;-77
2023/11/29 05:13:43;;;;;;;10.37;7.00;;;;;1.60;99782.00;;;;10089457;29;20252;-79
2023/11/29 05:18:45;;;;;;;10.97;7.00;;;;;1.60;99781.00;;;;10058919;29;20243;-77
2023/11/29 05:23:46;;;;;;;11.73;8.20;;;;;1.70;99767.00;;;;10076135;29;20232;-76
2023/11/29 05:28:47;;;;;;;18.30;8.00;;;;;1.80;99772.00;;;;10087017;29;20234;-79
2023/11/29 05:33:49;;;;;;;11.03;7.73;;;;;1.80;99772.00;;;;10089918;29;20228;-76
2023/11/29 05:38:50;;;;;;;9.20;6.63;;;;;1.90;99774.00;;;;10098350;29;20832;-78
2023/11/29 05:43:53;;;;;;;9.93;6.40;;;;;1.90;99769.00;;;;10079560;29;20215;-77
2023/11/29 05:48:54;;;;;;;11.53;6.37;;;;;1.80;99765.00;;;;10069153;29;20323;-77
2023/11/29 05:53:57;;;;;;;12.50;6.40;;;;;1.70;99753.00;;;;10072342;29;20351;-79
2023/11/29 05:58:58;;;;;;;12.43;6.80;;;;;1.60;99774.00;;;;10101315;29;20226;-80
2023/11/29 06:03:59;;;;;;;11.13;6.70;;;;;1.50;99771.00;;;;10087352;29;20242;-77
2023/11/29 06:09:07;;;;;;;14.23;7.63;;;;;1.40;99771.00;;;;10076799;29;20258;-78
2023/11/29 06:14:08;;;;;;;12.57;7.03;;;;;1.40;99776.00;;;;10081896;29;20754;-75
2023/11/29 06:19:09;;;;;;;12.37;7.37;;;;;1.30;99763.00;;;;10108970;29;20766;-78
2023/11/29 06:24:11;;;;;;;11.53;7.13;;;;;1.30;99775.00;;;;10085633;29;20255;-78
2023/11/29 06:29:12;;;;;;;12.13;7.70;;;;;1.20;99773.00;;;;10096570;29;20227;-78
2023/11/29 06:34:13;;;;;;;13.37;7.53;;;;;1.30;99768.00;;;;10113252;29;20235;-76
2023/11/29 06:39:17;;;;;;;15.07;8.57;;;;;1.30;99758.00;;;;10077865;29;20282;-76
2023/11/29 06:44:19;;;;;;;11.07;7.80;;;;;1.20;99753.00;;;;10078429;29;20749;-76
2023/11/29 06:49:20;;;;;;;15.07;8.17;;;;;1.20;99763.00;;;;10090812;29;20247;-82
2023/11/29 06:54:21;;;;;;;11.73;8.40;;;;;1.20;99772.00;;;;10099488;29;20309;-83
2023/11/29 06:59:22;;;;;;;16.67;9.13;;;;;1.20;99768.00;;;;10057987;29;20881;-83
2023/11/29 07:04:27;;;;;;;12.60;9.13;;;;;1.20;99772.00;;;;10077426;29;20331;-82
2023/11/29 07:09:28;;;;;;;14.00;9.60;;;;;1.20;99775.00;;;;10090583;29;20318;-83
2023/11/29 07:14:29;;;;;;;13.40;8.70;;;;;1.20;99782.00;;;;10050677;29;20925;-82
2023/11/29 07:19:31;;;;;;;12.63;8.67;;;;;1.20;99779.00;;;;10071949;29;20236;-82
2023/11/29 07:24:33;;;;;;;15.53;8.83;;;;;1.30;99779.00;;;;10071588;29;20235;-81
2023/11/29 07:29:34;;;;;;;12.53;8.90;;;;;1.40;99789.00;;;;10074146;29;20242;-82
2023/11/29 07:34:35;;;;;;;15.37;9.77;;;;;1.50;99787.00;;;;10094006;29;20239;-82
2023/11/29 07:39:37;;;;;;;15.47;9.50;;;;;1.70;99788.00;;;;10090166;29;20678;-81
2023/11/29 07:44:38;;;;;;;13.17;9.23;;;;;1.70;99795.00;;;;10082215;29;20243;-82
2023/11/29 07:49:39;;;;;;;16.07;9.30;;;;;1.80;99797.00;;;;10064596;29;21240;-82
2023/11/29 07:54:41;;;;;;;16.27;9.83;;;;;1.80;99789.00;;;;10079866;29;20340;-81
2023/11/29 07:59:44;;;;;;;16.47;9.57;;;;;1.80;99804.00;;;;10106423;29;20326;-80
2023/11/29 08:04:45;;;;;;;17.07;8.63;;;;;1.90;99801.00;;;;10064669;29;20343;-77
2023/11/29 08:09:47;;;;;;;14.77;8.77;;;;;2.10;99809.00;;;;10077972;29;20231;-78
2023/11/29 08:14:50;;;;;;;16.57;9.40;;;;;2.40;99821.00;;;;10106877;29;21233;-79
2023/11/29 08:19:52;;;;;;;13.27;8.70;;;;;2.60;99830.00;;;;10105025;29;20244;-78
2023/11/29 08:24:54;;;;;;;15.43;8.33;;;;;2.60;99824.00;;;;10095913;29;20231;-79
2023/11/29 08:29:55;;;;;;;13.03;7.83;;;;;2.80;99823.00;;;;10089606;29;20315;-79
2023/11/29 08:34:56;;;;;;;16.90;8.90;;;;;3.20;99830.00;;;;10097816;29;20238;-78
2023/11/29 08:39:59;;;;;;;13.10;7.57;;;;;3.50;99852.00;;;;10079908;29;20233;-78
2023/11/29 08:45:01;;;;;;;12.67;8.03;;;;;3.60;99853.00;;;;10096600;29;20219;-79
2023/11/29 08:50:05;;;;;;;15.43;9.30;;;;;4.10;99867.00;;;;10101175;29;20287;-79
2023/11/29 08:55:08;;;;;;;10.87;7.30;;;;;4.00;99873.00;;;;10076037;29;20686;-78
2023/11/29 09:00:10;;;;;;;14.70;8.90;;;;;4.40;99875.00;;;;10092693;29;20266;-78
2023/11/29 09:05:17;;;;;;;18.83;8.47;;;;;4.00;99876.00;;;;10108291;29;20279;-79
2023/11/29 09:10:23;;;;;;;11.97;7.07;;;;;3.70;99869.00;;;;10064993;29;20708;-82
2023/11/29 09:15:30;;;;;;;10.20;6.33;;;;;3.50;99872.00;;;;10071914;29;20326;-82
2023/11/29 09:20:31;;;;;;;11.57;6.63;;;;;3.50;99855.00;;;;10068601;29;20300;-82
2023/11/29 09:25:33;;;;;;;12.43;7.63;;;;;3.80;99864.00;;;;10064810;29;20785;-82
2023/11/29 09:30:34;;;;;;;15.37;7.50;;;;;4.20;99858.00;;;;10054533;29;20886;-82
2023/11/29 09:35:35;;;;;;;12.97;7.80;;;;;4.40;99866.00;;;;10084373;29;20275;-82
2023/11/29 09:40:37;;;;;;;10.40;7.97;;;;;5.20;99876.00;;;;10076862;29;20266;-82
2023/11/29 09:45:38;;;;;;;13.53;7.87;;;;;4.90;99893.00;;;;10034882;29;20264;-82
2023/11/29 09:50:40;;;;;;;14.83;6.47;;;;;4.60;99876.00;;;;10089977;29;20276;-81
2023/11/29 09:55:43;;;;;;;8.83;6.93;;;;;4.50;99876.00;;;;10045425;29;20904;-82
2023/11/29 10:00:45;;;;;;;11.93;6.83;;;;;4.70;99881.00;;;;10070750;29;20235;-82
2023/11/29 10:05:49;;;;;;;14.87;6.30;;;;;4.60;99875.00;;;;10028760;29;20683;-81
2023/11/29 10:10:54;;;;;;;12.17;7.40;;;;;4.90;99873.00;;;;10064096;29;20314;-81
2023/11/29 10:15:55;;;;;;;12.33;7.33;;;;;5.20;99871.00;;;;10075707;29;20236;-81
2023/11/29 10:20:57;;;;;;;14.03;8.17;;;;;5.10;99866.00;;;;10050327;29;20242;-81
2023/11/29 10:26:09;;;;;;;13.13;7.23;;;;;5.10;99864.00;;;;10054853;29;20710;-81
2023/11/29 10:31:11;;;;;;;11.60;7.10;;;;;5.10;99853.00;;;;10064653;29;20241;-82
2023/11/29 10:36:16;;;;;;;17.00;8.50;;;;;4.90;99855.00;;;;10063512;29;20319;-82
2023/11/29 10:41:18;;;;;;;10.27;6.97;;;;;4.80;99863.00;;;;10076289;29;20254;-82
2023/11/29 10:46:28;;;;;;;15.37;6.30;;;;;4.80;99858.00;;;;10085441;29;21051;-81
2023/11/29 10:51:31;;;;;;;10.50;6.50;;;;;4.90;99853.00;;;;10063418;29;20246;-82
2023/11/29 10:56:35;;;;;;;11.60;6.57;;;;;5.70;99847.00;;;;10055003;29;20322;-82
2023/11/29 11:01:36;;;;;;;12.33;6.97;;;;;5.60;99850.00;;;;10073310;29;20361;-82
2023/11/29 11:06:41;;;;;;;11.63;7.10;;;;;5.80;99839.00;;;;10078978;29;20241;-82
2023/11/29 11:11:45;;;;;;;17.77;7.07;;;;;6.60;99838.00;;;;10083433;29;20239;-81
2023/11/29 11:17:06;;;;;;;8.83;6.03;;;;;8.00;99853.00;;;;10071852;29;20234;-82
2023/11/29 11:22:23;;;;;;;7.63;4.07;;;;;6.70;99863.00;;;;10065763;29;20227;-81
2023/11/29 11:27:34;;;;;;;6.10;4.13;;;;;5.80;99843.00;;;;10073110;29;20226;-79
2023/11/29 11:32:42;;;;;;;8.23;4.30;;;;;6.00;99829.00;;;;10098050;29;20231;-80
2023/11/29 11:37:45;;;;;;;22.30;6.57;;;;;7.00;99832.00;;;;10095046;29;20712;-80
2023/11/29 11:42:47;;;;;;;9.40;5.57;;;;;8.30;99841.00;;;;10107387;29;20944;-80
2023/11/29 11:47:50;;;;;;;4.93;3.80;;;;;8.30;99851.00;;;;10072246;29;20263;-79
2023/11/29 11:52:59;;;;;;;5.97;3.80;;;;;7.70;99840.00;;;;10082358;29;20265;-79
2023/11/29 11:58:02;;;;;;;5.30;3.27;;;;;7.20;99826.00;;;;10085865;29;20293;-79
2023/11/29 12:03:03;;;;;;;5.00;3.17;;;;;7.20;99826.00;;;;10065939;29;20238;-77
2023/11/29 12:08:07;;;;;;;7.13;4.73;;;;;6.80;99810.00;;;;10103852;29;20278;-77
2023/11/29 12:13:10;;;;;;;7.17;3.83;;;;;6.80;99806.00;;;;10090251;29;20238;-77
2023/11/29 12:18:14;;;;;;;5.03;3.50;;;;;6.70;99797.00;;;;10102670;29;20271;-78
2023/11/29 12:23:15;;;;;;;9.30;4.07;;;;;7.00;99805.00;;;;10080165;29;20298;-77
2023/11/29 12:28:16;;;;;;;4.43;3.83;;;;;7.30;99817.00;;;;10081671;29;20227;-76
2023/11/29 12:33:17;;;;;;;10.40;3.37;;;;;7.10;99801.00;;;;10068440;29;20235;-77
2023/11/29 12:38:19;;;;;;;6.60;3.60;;;;;7.20;99792.00;;;;10090813;29;20270;-82
2023/11/29 12:43:20;;;;;;;5.63;3.20;;;;;7.00;99805.00;;;;10084688;29;20223;-80
2023/11/29 12:48:21;;;;;;;9.00;4.60;;;;;7.30;99811.00;;;;10070464;29;20262;-80
2023/11/29 12:53:22;;;;;;;6.60;3.53;;;;;6.80;99806.00;;;;10076149;29;20242;-80
2023/11/29 12:58:24;;;;;;;10.93;3.77;;;;;6.40;99798.00;;;;10106473;29;20619;-80
2023/11/29 13:03:25;;;;;;;7.20;4.50;;;;;6.30;99799.00;;;;10085550;29;20375;-80
2023/11/29 13:08:26;;;;;;;7.87;5.10;;;;;6.20;99790.00;;;;10101122;29;20254;-82
2023/11/29 13:13:28;;;;;;;11.03;5.20;;;;;6.20;99785.00;;;;10067833;29;20930;-82
2023/11/29 13:18:30;;;;;;;8.13;5.13;;;;;6.10;99782.00;;;;10074024;29;20236;-83
2023/11/29 13:23:35;;;;;;;7.33;5.23;;;;;5.70;99777.00;;;;10064593;29;20231;-81
2023/11/29 13:28:36;;;;;;;9.63;5.17;;;;;5.50;99775.00;;;;10058225;29;21044;-81
2023/11/29 13:33:37;;;;;;;9.07;5.47;;;;;5.40;99773.00;;;;10080934;29;20240;-81
2023/11/29 13:38:38;;;;;;;8.97;5.03;;;;;5.50;99771.00;;;;10060935;29;20224;-82
2023/11/29 13:43:40;;;;;;;10.87;5.00;;;;;5.40;99788.00;;;;10045115;29;20274;-81
2023/11/29 13:48:41;;;;;;;11.83;6.13;;;;;5.20;99787.00;;;;10068983;29;20318;-84
2023/11/29 13:53:43;;;;;;;11.33;5.70;;;;;5.10;99788.00;;;;10060608;29;20237;-83
2023/11/29 13:58:45;;;;;;;8.37;5.57;;;;;5.20;99789.00;;;;10088873;29;20227;-84
2023/11/29 14:03:47;;;;;;;11.37;5.57;;;;;5.30;99800.00;;;;10056214;29;20251;-84
2023/11/29 14:08:52;;;;;;;16.10;6.50;;;;;5.40;99793.00;;;;10071821;29;20231;-81
2023/11/29 14:13:54;;;;;;;13.60;6.57;;;;;5.40;99797.00;;;;10057044;29;20235;-82
2023/11/29 14:18:55;;;;;;;12.10;6.00;;;;;5.20;99794.00;;;;10071074;29;20776;-83
2023/11/29 14:23:56;;;;;;;29.73;15.47;;;;;5.10;99789.00;;;;10047484;29;20231;-83
2023/11/29 14:28:57;;;;;;;11.83;8.10;;;;;5.00;99789.00;;;;10078185;29;20227;-82
2023/11/29 14:33:58;;;;;;;4.30;2.70;;;;;5.10;99804.00;;;;10070216;29;20239;-83
2023/11/29 14:39:01;;;;;;;2.40;2.17;;;;;4.90;99802.00;;;;10078293;29;20254;-83
2023/11/29 14:44:05;;;;;;;13.27;6.93;;;;;4.70;99805.00;;;;10068665;29;20286;-83
2023/11/29 14:49:06;;;;;;;5.53;2.67;;;;;4.50;99796.00;;;;10072416;29;20226;-82
2023/11/29 14:54:17;;;;;;;3.90;2.70;;;;;4.30;99805.00;;;;10071851;29;20239;-82
2023/11/29 14:59:18;;;;;;;5.67;2.90;;;;;4.20;99810.00;;;;10081050;29;20235;-76
2023/11/29 15:04:19;;;;;;;4.47;3.20;;;;;4.10;99795.00;;;;10064699;29;21184;-76
2023/11/29 15:09:20;;;;;;;3.33;3.00;;;;;4.00;99789.00;;;;10075344;29;20878;-78
2023/11/29 15:14:22;;;;;;;5.07;3.30;;;;;3.90;99790.00;;;;10094533;29;20248;-78
2023/11/29 15:19:23;;;;;;;18.90;3.50;;;;;3.70;99799.00;;;;10075663;29;21238;-78
2023/11/29 15:24:25;;;;;;;5.50;3.50;;;;;3.70;99804.00;;;;10074862;29;20290;-78
2023/11/29 15:29:27;;;;;;;7.23;4.80;;;;;3.60;99804.00;;;;10076056;29;20238;-79
2023/11/29 15:34:30;;;;;;;8.80;5.73;;;;;3.50;99798.00;;;;10092821;29;20229;-79
2023/11/29 15:39:31;;;;;;;9.13;6.17;;;;;3.50;99794.00;;;;10077350;29;20943;-79
2023/11/29 15:44:32;;;;;;;6.63;5.10;;;;;3.40;99796.00;;;;10088988;29;20761;-77
2023/11/29 15:49:34;;;;;;;8.17;5.03;;;;;3.40;99798.00;;;;10094129;29;20242;-77
2023/11/29 15:54:35;;;;;;;6.77;4.80;;;;;3.30;99798.00;;;;10075960;29;20231;-79
2023/11/29 15:59:36;;;;;;;6.73;4.30;;;;;3.20;99794.00;;;;10079271;29;20844;-77
2023/11/29 16:04:37;;;;;;;7.43;4.30;;;;;3.20;99793.00;;;;10095064;29;20263;-77
2023/11/29 16:09:38;;;;;;;9.77;4.50;;;;;3.20;99787.00;;;;10044295;29;20235;-80
2023/11/29 16:14:40;;;;;;;9.40;5.30;;;;;3.30;99795.00;;;;10081311;29;21146;-80
2023/11/29 16:19:41;;;;;;;9.10;5.67;;;;;3.30;99798.00;;;;10067283;29;20227;-80
2023/11/29 16:24:42;;;;;;;11.30;5.80;;;;;3.20;99802.00;;;;10096863;29;20234;-80
2023/11/29 16:29:45;;;;;;;9.37;6.13;;;;;3.20;99795.00;;;;10109215;29;20319;-80
2023/11/29 16:34:47;;;;;;;9.67;6.07;;;;;3.10;99800.00;;;;10076391;29;20263;-80
2023/11/29 16:39:48;;;;;;;11.90;7.40;;;;;3.20;99793.00;;;;10068435;29;20240;-81
2023/11/29 16:44:50;;;;;;;9.13;6.20;;;;;3.10;99781.00;;;;10065531;29;21059;-81
2023/11/29 16:49:52;;;;;;;9.20;6.57;;;;;3.10;99781.00;;;;10083108;29;20329;-80
2023/11/29 16:54:53;;;;;;;9.30;7.63;;;;;3.10;99789.00;;;;10081448;29;20318;-81
2023/11/29 16:59:54;;;;;;;12.27;7.40;;;;;3.00;99784.00;;;;10071818;29;20909;-81
2023/11/29 17:04:55;;;;;;;11.03;7.13;;;;;3.00;99780.00;;;;10072845;29;21097;-80
2023/11/29 17:09:57;;;;;;;9.93;7.20;;;;;3.00;99794.00;;;;10086894;29;20232;-81
2023/11/29 17:14:58;;;;;;;12.50;8.37;;;;;3.00;99787.00;;;;10055383;29;20288;-80
2023/11/29 17:19:59;;;;;;;12.60;8.23;;;;;3.00;99783.00;;;;10080511;29;20235;-84
2023/11/29 17:25:01;;;;;;;9.13;7.70;;;;;3.00;99774.00;;;;10063717;29;20228;-84
2023/11/29 17:30:03;;;;;;;14.53;7.77;;;;;2.90;99774.00;;;;10063988;29;20231;-85
2023/11/29 17:35:06;;;;;;;12.13;8.90;;;;;2.90;99784.00;;;;10098699;29;20266;-84
2023/11/29 17:40:07;;;;;;;13.27;7.97;;;;;2.90;99774.00;;;;10073681;29;20243;-84
2023/11/29 17:45:09;;;;;;;16.63;9.83;;;;;3.00;99773.00;;;;10094360;29;20255;-84
2023/11/29 17:50:10;;;;;;;18.07;12.47;;;;;3.00;99782.00;;;;10077351;29;20251;-84
2023/11/29 17:55:12;;;;;;;12.43;10.53;;;;;3.00;99786.00;;;;10061094;29;20276;-84
2023/11/29 18:00:13;;;;;;;16.70;12.03;;;;;3.00;99783.00;;;;10099748;29;20230;-84
2023/11/29 18:05:15;;;;;;;18.40;13.00;;;;;3.00;99791.00;;;;10077575;29;20224;-83
2023/11/29 18:10:17;;;;;;;15.07;10.80;;;;;3.00;99786.00;;;;10090888;29;20235;-83
2023/11/29 18:15:18;;;;;;;14.67;9.93;;;;;2.90;99777.00;;;;10079918;29;20243;-84
2023/11/29 18:20:19;;;;;;;11.33;8.50;;;;;2.80;99775.00;;;;10092073;29;20230;-84
2023/11/29 18:25:21;;;;;;;16.43;9.93;;;;;2.70;99773.00;;;;10085841;29;20255;-77
2023/11/29 18:30:22;;;;;;;17.07;12.23;;;;;2.60;99770.00;;;;10047930;29;21928;-77
2023/11/29 18:35:23;;;;;;;15.80;10.03;;;;;2.60;99768.00;;;;10086136;29;20346;-77
2023/11/29 18:40:24;;;;;;;14.43;9.80;;;;;2.50;99769.00;;;;10074250;29;20255;-77
2023/11/29 18:45:26;;;;;;;15.83;9.87;;;;;2.40;99757.00;;;;10106303;29;20274;-77
2023/11/29 18:50:27;;;;;;;14.13;9.30;;;;;2.30;99758.00;;;;10073604;29;20354;-78
2023/11/29 18:55:29;;;;;;;13.70;8.80;;;;;2.30;99769.00;;;;10103400;29;20794;-79
2023/11/29 19:00:30;;;;;;;14.97;10.07;;;;;2.30;99765.00;;;;10089732;29;20299;-78
2023/11/29 19:05:31;;;;;;;16.73;11.33;;;;;2.30;99770.00;;;;10101873;29;20424;-77
2023/11/29 19:10:32;;;;;;;15.37;10.87;;;;;2.30;99770.00;;;;10087528;29;20318;-78
2023/11/29 19:15:33;;;;;;;23.37;14.03;;;;;2.30;99773.00;;;;10098897;29;20231;-76
2023/11/29 19:20:35;;;;;;;18.07;13.47;;;;;2.30;99768.00;;;;10094592;29;20323;-77
2023/11/29 19:25:36;;;;;;;16.70;11.60;;;;;2.40;99764.00;;;;10082117;29;20239;-79
2023/11/29 19:30:37;;;;;;;21.73;13.43;;;;;2.50;99765.00;;;;10065100;29;20690;-77
2023/11/29 19:35:38;;;;;;;35.47;17.37;;;;;2.50;99766.00;;;;10079033;29;20227;-87
2023/11/29 19:40:39;;;;;;;25.37;14.67;;;;;2.50;99775.00;;;;10089376;29;20594;-83
2023/11/29 19:45:40;;;;;;;20.03;12.53;;;;;2.50;99766.00;;;;10079601;29;20264;-83
2023/11/29 19:50:42;;;;;;;18.10;12.23;;;;;2.50;99767.00;;;;10085627;29;20234;-82
2023/11/29 19:55:43;;;;;;;20.23;12.73;;;;;2.60;99767.00;;;;10105896;29;20312;-85
2023/11/29 20:00:44;;;;;;;23.63;14.67;;;;;2.60;99765.00;;;;10087607;29;20239;-83
2023/11/29 20:05:46;;;;;;;25.70;14.80;;;;;2.50;99758.00;;;;10074344;29;20223;-84
2023/11/29 20:10:47;;;;;;;25.23;14.53;;;;;2.60;99752.00;;;;10084581;29;20240;-82
2023/11/29 20:15:53;;;;;;;20.43;12.87;;;;;2.60;99746.00;;;;10065613;29;20892;-83
2023/11/29 20:20:54;;;;;;;24.03;14.70;;;;;2.70;99746.00;;;;10084821;29;20336;-84
2023/11/29 20:26:05;;;;;;;23.47;14.10;;;;;2.70;99742.00;;;;10079857;29;20526;-85
2023/11/29 20:31:07;;;;;;;21.53;14.73;;;;;2.70;99739.00;;;;10096667;29;20235;-83
2023/11/29 20:36:08;;;;;;;18.70;13.10;;;;;2.70;99741.00;;;;10080949;29;20918;-83
2023/11/29 20:41:11;;;;;;;27.73;16.67;;;;;2.70;99745.00;;;;10099488;29;20223;-84
2023/11/29 20:46:13;;;;;;;28.50;16.23;;;;;2.70;99744.00;;;;10095238;29;20866;-84
2023/11/29 20:51:14;;;;;;;26.03;16.50;;;;;2.70;99744.00;;;;10072287;29;20645;-83
2023/11/29 20:56:15;;;;;;;21.20;14.27;;;;;2.70;99735.00;;;;10087399;29;20235;-84
2023/11/29 21:01:17;;;;;;;20.57;14.33;;;;;2.70;99731.00;;;;10071120;29;20242;-84
2023/11/29 21:06:18;;;;;;;20.60;14.63;;;;;2.70;99723.00;;;;10078667;29;20234;-83
2023/11/29 21:11:21;;;;;;;21.53;14.93;;;;;2.70;99713.00;;;;10076047;29;20685;-83
2023/11/29 21:16:23;;;;;;;23.23;14.70;;;;;2.70;99710.00;;;;10091366;29;20310;-84
2023/11/29 21:21:24;;;;;;;23.13;15.53;;;;;2.70;99703.00;;;;10083796;29;20319;-84
2023/11/29 21:26:26;;;;;;;21.57;15.70;;;;;2.70;99707.00;;;;10089301;29;20310;-82
2023/11/29 21:31:27;;;;;;;26.60;17.77;;;;;2.70;99699.00;;;;10083977;29;20261;-84
2023/11/29 21:36:30;;;;;;;24.00;16.10;;;;;2.70;99700.00;;;;10088829;29;20318;-83
2023/11/29 21:41:31;;;;;;;24.13;15.67;;;;;2.80;99694.00;;;;10075969;29;20233;-85
2023/11/29 21:46:33;;;;;;;25.27;16.07;;;;;2.80;99700.00;;;;10070231;29;20246;-83
2023/11/29 21:51:34;;;;;;;23.50;14.60;;;;;2.80;99699.00;;;;10128544;29;20295;-85
2023/11/29 21:56:35;;;;;;;23.67;16.93;;;;;2.90;99697.00;;;;10070162;29;20259;-76
2023/11/29 22:01:37;;;;;;;23.60;16.90;;;;;2.90;99697.00;;;;10072141;29;20923;-77
2023/11/29 22:06:38;;;;;;;25.40;16.03;;;;;2.90;99704.00;;;;10078349;29;20227;-77
2023/11/29 22:11:39;;;;;;;24.90;17.97;;;;;2.90;99692.00;;;;10075235;29;20422;-78
2023/11/29 22:16:40;;;;;;;25.90;17.80;;;;;2.90;99696.00;;;;10095456;29;20340;-77
2023/11/29 22:21:41;;;;;;;29.63;16.73;;;;;2.90;99690.00;;;;10094564;29;20235;-76
2023/11/29 22:26:42;;;;;;;28.67;16.57;;;;;2.90;99693.00;;;;10094562;29;20970;-77
2023/11/29 22:31:57;;;;;;;26.17;17.30;;;;;2.90;99688.00;;;;10099191;29;20258;-77
2023/11/29 22:36:58;;;;;;;24.93;16.90;;;;;2.90;99690.00;;;;10102281;29;20881;-77
2023/11/29 22:41:59;;;;;;;24.60;17.07;;;;;2.90;99695.00;;;;10058270;29;20605;-77
2023/11/29 22:47:01;;;;;;;23.53;16.57;;;;;2.90;99687.00;;;;10096353;29;20307;-76
2023/11/29 22:52:03;;;;;;;24.80;17.63;;;;;2.90;99696.00;;;;10106030;29;20231;-77
2023/11/29 22:57:04;;;;;;;22.93;17.23;;;;;3.00;99698.00;;;;10061924;29;22441;-78
2023/11/29 23:02:05;;;;;;;25.70;17.00;;;;;2.90;99700.00;;;;10117992;29;20240;-77
2023/11/29 23:07:07;;;;;;;28.00;18.50;;;;;2.90;99688.00;;;;10102911;29;20250;-88
2023/11/29 23:12:08;;;;;;;27.87;17.27;;;;;2.90;99686.00;;;;10100491;29;20254;-89
2023/11/29 23:17:10;;;;;;;24.90;17.57;;;;;2.90;99678.00;;;;10085919;29;20295;-88
2023/11/29 23:22:11;;;;;;;28.37;18.80;;;;;2.80;99677.00;;;;10097194;29;20262;-84
2023/11/29 23:27:12;;;;;;;28.20;18.33;;;;;2.70;99677.00;;;;10093827;29;20289;-86
2023/11/29 23:32:13;;;;;;;27.10;18.90;;;;;2.60;99676.00;;;;10086932;29;20238;-88
2023/11/29 23:37:14;;;;;;;29.40;19.03;;;;;2.50;99679.00;;;;10098306;29;20295;-86
2023/11/29 23:42:16;;;;;;;26.97;18.67;;;;;2.40;99668.00;;;;10088149;29;20231;-84
2023/11/29 23:47:17;;;;;;;29.47;18.20;;;;;2.40;99674.00;;;;10099680;29;20275;-87
2023/11/29 23:52:19;;;;;;;25.47;17.70;;;;;2.30;99666.00;;;;10093553;29;20343;-89
2023/11/29 23:57:20;;;;;;;26.60;16.90;;;;;2.30;99664.00;;;;10096775;29;20239;-86
